createdAt,value
2022-10-31T00:00:49.760Z,0.00
2022-10-31T00:01:49.792Z,0.00
2022-10-31T00:02:49.767Z,0.00
2022-10-31T00:03:49.777Z,0.00
2022-10-31T00:04:49.804Z,0.00
2022-10-31T00:05:49.813Z,0.00
2022-10-31T00:06:49.852Z,0.00
2022-10-31T00:07:49.877Z,0.00
2022-10-31T00:08:49.901Z,0.00
2022-10-31T00:09:49.915Z,0.00
2022-10-31T00:10:49.943Z,0.00
2022-10-31T00:11:49.973Z,0.00
2022-10-31T00:12:50.005Z,0.00
2022-10-31T00:13:50.026Z,0.00
2022-10-31T00:14:50.048Z,0.00
2022-10-31T00:15:50.097Z,0.00
2022-10-31T00:16:50.116Z,0.00
2022-10-31T00:17:50.145Z,0.00
2022-10-31T00:18:50.168Z,0.00
2022-10-31T00:19:50.206Z,0.00
2022-10-31T00:20:50.248Z,0.00
2022-10-31T00:21:50.330Z,0.00
2022-10-31T00:22:50.277Z,0.00
2022-10-31T00:23:50.315Z,0.00
2022-10-31T00:24:50.326Z,0.00
2022-10-31T00:25:50.339Z,0.00
2022-10-31T00:26:50.403Z,0.00
2022-10-31T00:27:50.419Z,0.00
2022-10-31T00:28:50.479Z,0.00
2022-10-31T00:29:50.507Z,0.00
2022-10-31T00:30:50.530Z,0.00
2022-10-31T00:31:50.581Z,0.00
2022-10-31T00:32:50.611Z,0.00
2022-10-31T00:33:50.640Z,0.00
2022-10-31T00:34:50.681Z,0.00
2022-10-31T00:35:50.712Z,0.00
2022-10-31T00:36:50.773Z,0.00
2022-10-31T00:37:50.807Z,0.00
2022-10-31T00:38:50.831Z,0.00
2022-10-31T00:39:50.853Z,0.00
2022-10-31T00:40:50.893Z,0.00
2022-10-31T00:41:50.944Z,0.00
2022-10-31T00:42:51.013Z,0.00
2022-10-31T00:43:50.985Z,0.00
2022-10-31T00:44:51.035Z,0.00
2022-10-31T00:45:51.063Z,0.00
2022-10-31T00:46:51.094Z,0.00
2022-10-31T00:47:51.125Z,0.00
2022-10-31T00:48:51.157Z,0.00
2022-10-31T00:49:51.205Z,0.00
2022-10-31T00:50:51.236Z,0.00
2022-10-31T00:51:51.257Z,0.00
2022-10-31T00:52:51.299Z,0.00
2022-10-31T00:53:51.326Z,0.00
2022-10-31T00:54:51.369Z,0.00
2022-10-31T00:55:51.396Z,0.00
2022-10-31T00:56:51.438Z,0.00
2022-10-31T00:57:51.467Z,0.00
2022-10-31T00:58:51.500Z,0.00
2022-10-31T00:59:51.537Z,0.00
2022-10-31T01:00:51.993Z,0.00
2022-10-31T01:01:51.742Z,0.00
2022-10-31T01:02:51.608Z,0.00
2022-10-31T01:03:51.630Z,0.00
2022-10-31T01:04:51.659Z,0.00
2022-10-31T01:05:51.679Z,0.00
2022-10-31T01:06:51.731Z,0.00
2022-10-31T01:07:51.762Z,0.00
2022-10-31T01:08:51.800Z,0.00
2022-10-31T01:09:51.821Z,0.00
2022-10-31T01:10:51.860Z,0.00
2022-10-31T01:11:51.911Z,0.00
2022-10-31T01:12:51.950Z,0.00
2022-10-31T01:13:51.981Z,0.00
2022-10-31T01:14:52.017Z,0.00
2022-10-31T01:15:52.092Z,0.00
2022-10-31T01:16:52.063Z,0.00
2022-10-31T01:17:52.103Z,0.00
2022-10-31T01:18:52.134Z,0.00
2022-10-31T01:19:52.163Z,0.00
2022-10-31T01:20:52.224Z,0.00
2022-10-31T01:21:52.254Z,0.00
2022-10-31T01:22:52.302Z,0.00
2022-10-31T01:23:52.324Z,0.00
2022-10-31T01:24:52.354Z,0.00
2022-10-31T01:25:52.404Z,0.00
2022-10-31T01:26:52.444Z,0.00
2022-10-31T01:27:52.475Z,0.00
2022-10-31T01:28:52.505Z,0.00
2022-10-31T01:29:52.527Z,0.00
2022-10-31T01:30:52.565Z,0.00
2022-10-31T01:31:52.596Z,0.00
2022-10-31T01:32:52.646Z,0.00
2022-10-31T01:33:52.678Z,0.00
2022-10-31T01:34:52.704Z,0.00
2022-10-31T01:35:52.738Z,0.00
2022-10-31T01:36:52.777Z,0.00
2022-10-31T01:37:52.808Z,0.00
2022-10-31T01:38:52.863Z,0.00
2022-10-31T01:39:52.913Z,0.00
2022-10-31T01:40:52.941Z,0.00
2022-10-31T01:41:52.972Z,0.00
2022-10-31T01:42:52.999Z,0.00
2022-10-31T01:43:53.482Z,0.00
2022-10-31T01:44:53.120Z,0.00
2022-10-31T01:45:53.160Z,0.00
2022-10-31T01:46:53.191Z,0.00
2022-10-31T01:47:53.229Z,0.00
2022-10-31T01:48:53.252Z,0.00
2022-10-31T01:49:53.290Z,0.00
2022-10-31T01:50:53.323Z,0.00
2022-10-31T01:51:53.390Z,0.00
2022-10-31T01:52:53.421Z,0.00
2022-10-31T01:53:53.452Z,0.00
2022-10-31T01:54:53.494Z,0.00
2022-10-31T01:55:53.523Z,0.00
2022-10-31T01:56:53.591Z,0.00
2022-10-31T01:57:53.593Z,0.00
2022-10-31T01:58:53.631Z,0.00
2022-10-31T01:59:53.675Z,0.00
2022-10-31T02:00:53.754Z,0.00
2022-10-31T02:01:53.805Z,0.00
2022-10-31T02:02:53.759Z,0.00
2022-10-31T02:03:53.775Z,0.00
2022-10-31T02:04:53.816Z,0.00
2022-10-31T02:07:19.802Z,0.00
2022-10-31T02:08:19.821Z,0.00
2022-10-31T02:09:19.839Z,0.00
2022-10-31T02:10:19.873Z,0.00
2022-10-31T02:11:19.889Z,0.00
2022-10-31T02:12:19.919Z,0.00
2022-10-31T02:14:45.975Z,0.00
2022-10-31T02:15:45.993Z,0.00
2022-10-31T02:16:46.006Z,0.00
2022-10-31T02:17:46.057Z,0.00
2022-10-31T02:18:46.096Z,0.00
2022-10-31T02:19:46.120Z,0.00
2022-10-31T02:20:46.157Z,0.00
2022-10-31T02:21:46.194Z,0.00
2022-10-31T02:22:46.222Z,0.00
2022-10-31T02:23:47.960Z,0.00
2022-10-31T02:24:46.268Z,0.00
2022-10-31T02:25:46.288Z,0.00
2022-10-31T02:26:46.321Z,0.00
2022-10-31T02:27:46.369Z,0.00
2022-10-31T02:28:46.406Z,0.00
2022-10-31T02:29:46.420Z,0.00
2022-10-31T02:30:46.450Z,0.00
2022-10-31T02:31:46.459Z,0.00
2022-10-31T02:32:46.469Z,0.00
2022-10-31T02:33:46.501Z,0.00
2022-10-31T02:34:46.520Z,0.00
2022-10-31T02:35:46.553Z,0.00
2022-10-31T02:36:46.561Z,0.00
2022-10-31T02:37:46.572Z,0.00
2022-10-31T02:38:46.613Z,0.00
2022-10-31T02:39:46.653Z,0.00
2022-10-31T02:40:46.671Z,0.00
2022-10-31T02:41:46.692Z,0.00
2022-10-31T02:42:46.716Z,0.00
2022-10-31T02:43:46.744Z,0.00
2022-10-31T02:44:46.773Z,0.00
2022-10-31T02:45:46.824Z,0.00
2022-10-31T02:46:46.856Z,0.00
2022-10-31T02:47:46.877Z,0.00
2022-10-31T02:48:46.916Z,0.00
2022-10-31T02:49:46.924Z,0.00
2022-10-31T02:50:46.965Z,0.00
2022-10-31T02:51:47.038Z,0.00
2022-10-31T02:52:47.025Z,0.00
2022-10-31T02:53:47.046Z,0.00
2022-10-31T02:54:47.076Z,0.00
2022-10-31T02:55:47.115Z,0.00
2022-10-31T02:56:47.165Z,0.00
2022-10-31T02:57:47.186Z,0.00
2022-10-31T02:58:47.205Z,0.00
2022-10-31T02:59:47.221Z,0.00
2022-10-31T03:00:51.167Z,0.00
2022-10-31T03:01:47.413Z,0.00
2022-10-31T03:02:47.248Z,0.00
2022-10-31T03:03:47.268Z,0.00
2022-10-31T03:04:47.309Z,0.00
2022-10-31T03:05:47.348Z,0.00
2022-10-31T03:06:47.398Z,0.00
2022-10-31T03:07:47.448Z,0.00
2022-10-31T03:08:47.489Z,0.00
2022-10-31T03:09:47.512Z,0.00
2022-10-31T03:10:47.562Z,0.00
2022-10-31T03:11:47.591Z,0.00
2022-10-31T03:12:48.773Z,0.00
2022-10-31T03:13:47.653Z,0.00
2022-10-31T03:14:47.691Z,0.00
2022-10-31T03:15:47.773Z,0.00
2022-10-31T03:16:47.721Z,0.00
2022-10-31T03:17:47.782Z,0.00
2022-10-31T03:18:47.802Z,0.00
2022-10-31T03:19:47.843Z,0.00
2022-10-31T03:20:47.886Z,0.00
2022-10-31T03:21:47.916Z,0.00
2022-10-31T03:22:47.964Z,0.00
2022-10-31T03:23:47.990Z,0.00
2022-10-31T03:24:48.013Z,0.00
2022-10-31T03:25:48.026Z,0.00
2022-10-31T03:26:48.050Z,0.00
2022-10-31T03:27:48.084Z,0.00
2022-10-31T03:28:48.104Z,0.00
2022-10-31T03:29:48.124Z,0.00
2022-10-31T03:30:48.146Z,0.00
2022-10-31T03:31:48.187Z,0.00
2022-10-31T03:32:48.205Z,0.00
2022-10-31T03:33:48.234Z,0.00
2022-10-31T03:34:48.257Z,0.00
2022-10-31T03:35:48.311Z,0.00
2022-10-31T03:36:48.327Z,0.00
2022-10-31T03:37:48.356Z,0.00
2022-10-31T03:38:48.376Z,0.00
2022-10-31T03:39:48.397Z,0.00
2022-10-31T03:40:48.445Z,0.00
2022-10-31T03:41:48.467Z,0.00
2022-10-31T03:42:48.482Z,0.00
2022-10-31T03:43:48.498Z,0.00
2022-10-31T03:44:48.519Z,0.00
2022-10-31T03:45:48.562Z,0.00
2022-10-31T03:46:48.586Z,0.00
2022-10-31T03:47:48.599Z,0.00
2022-10-31T03:48:48.653Z,0.00
2022-10-31T03:49:48.673Z,0.00
2022-10-31T03:50:48.689Z,0.00
2022-10-31T03:51:48.722Z,0.00
2022-10-31T03:52:48.741Z,0.00
2022-10-31T03:53:48.783Z,0.00
2022-10-31T03:54:48.792Z,0.00
2022-10-31T03:55:48.811Z,0.00
2022-10-31T03:56:48.848Z,0.00
2022-10-31T03:57:48.884Z,0.00
2022-10-31T03:58:48.903Z,0.00
2022-10-31T03:59:48.923Z,0.00
2022-10-31T04:00:48.953Z,0.00
2022-10-31T04:01:49.103Z,0.00
2022-10-31T04:02:49.038Z,0.00
2022-10-31T04:03:49.011Z,0.00
2022-10-31T04:04:49.024Z,0.00
2022-10-31T04:05:49.044Z,0.00
2022-10-31T04:06:49.072Z,0.00
2022-10-31T04:07:49.095Z,0.00
2022-10-31T04:08:49.134Z,0.00
2022-10-31T04:09:49.156Z,0.00
2022-10-31T04:10:49.175Z,0.00
2022-10-31T04:11:49.209Z,0.00
2022-10-31T04:12:49.242Z,0.00
2022-10-31T04:13:49.275Z,0.00
2022-10-31T04:14:49.309Z,0.00
2022-10-31T04:15:49.329Z,0.00
2022-10-31T04:16:49.368Z,0.00
2022-10-31T04:17:49.400Z,0.00
2022-10-31T04:18:49.417Z,0.00
2022-10-31T04:19:49.448Z,0.00
2022-10-31T04:20:49.474Z,0.00
2022-10-31T04:21:49.517Z,0.00
2022-10-31T04:22:49.531Z,0.00
2022-10-31T04:23:49.558Z,0.00
2022-10-31T04:24:49.583Z,0.00
2022-10-31T04:25:49.598Z,0.00
2022-10-31T04:26:49.629Z,0.00
2022-10-31T04:27:49.660Z,0.00
2022-10-31T04:28:49.680Z,0.00
2022-10-31T04:29:50.951Z,0.00
2022-10-31T04:30:49.773Z,0.00
2022-10-31T04:31:49.793Z,0.00
2022-10-31T04:32:49.831Z,0.00
2022-10-31T04:33:49.861Z,0.00
2022-10-31T04:34:49.898Z,0.00
2022-10-31T04:35:49.917Z,0.00
2022-10-31T04:36:49.940Z,0.00
2022-10-31T04:37:49.973Z,0.00
2022-10-31T04:38:50.002Z,0.00
2022-10-31T04:39:50.035Z,0.00
2022-10-31T04:40:50.053Z,0.00
2022-10-31T04:41:50.074Z,0.00
2022-10-31T04:42:50.093Z,0.00
2022-10-31T04:43:50.114Z,0.00
2022-10-31T04:44:50.165Z,0.00
2022-10-31T04:45:50.186Z,0.00
2022-10-31T04:46:50.206Z,0.00
2022-10-31T04:47:50.259Z,0.00
2022-10-31T04:48:50.294Z,0.00
2022-10-31T04:49:50.301Z,0.00
2022-10-31T04:50:50.279Z,0.00
2022-10-31T04:51:50.310Z,0.00
2022-10-31T04:52:50.347Z,0.00
2022-10-31T04:53:50.375Z,0.00
2022-10-31T04:54:50.432Z,0.00
2022-10-31T04:55:50.476Z,0.00
2022-10-31T04:56:50.507Z,0.00
2022-10-31T04:57:50.556Z,0.00
2022-10-31T04:58:50.580Z,0.00
2022-10-31T04:59:50.638Z,0.00
2022-10-31T05:00:50.707Z,0.00
2022-10-31T05:01:50.876Z,0.00
2022-10-31T05:02:50.708Z,0.00
2022-10-31T05:03:50.739Z,0.00
2022-10-31T05:04:50.800Z,0.00
2022-10-31T05:05:50.828Z,0.00
2022-10-31T05:06:50.861Z,0.00
2022-10-31T05:07:50.922Z,0.00
2022-10-31T05:08:50.950Z,0.00
2022-10-31T05:09:50.980Z,0.00
2022-10-31T05:10:51.026Z,0.00
2022-10-31T05:11:51.054Z,0.00
2022-10-31T05:12:51.100Z,0.00
2022-10-31T05:13:51.129Z,0.00
2022-10-31T05:14:51.151Z,0.00
2022-10-31T05:15:51.181Z,0.00
2022-10-31T05:16:51.222Z,0.00
2022-10-31T05:17:51.279Z,0.00
2022-10-31T05:18:51.305Z,0.00
2022-10-31T05:19:51.353Z,0.00
2022-10-31T05:20:51.383Z,0.00
2022-10-31T05:21:51.420Z,0.00
2022-10-31T05:22:51.406Z,0.00
2022-10-31T05:23:51.419Z,0.00
2022-10-31T05:24:51.414Z,0.00
2022-10-31T05:25:51.415Z,0.00
2022-10-31T05:26:51.446Z,0.00
2022-10-31T05:27:51.466Z,0.00
2022-10-31T05:28:51.504Z,0.00
2022-10-31T05:29:51.570Z,0.00
2022-10-31T05:30:51.545Z,0.00
2022-10-31T05:31:51.586Z,0.00
2022-10-31T05:32:51.610Z,0.00
2022-10-31T05:33:51.648Z,0.00
2022-10-31T05:34:51.675Z,0.00
2022-10-31T05:35:51.717Z,0.00
2022-10-31T05:36:51.746Z,0.00
2022-10-31T05:37:51.777Z,4.00
2022-10-31T05:38:51.817Z,4.00
2022-10-31T05:39:51.837Z,0.00
2022-10-31T05:40:51.927Z,4.00
2022-10-31T05:41:51.937Z,4.00
2022-10-31T05:42:51.929Z,4.00
2022-10-31T05:43:51.917Z,4.00
2022-10-31T05:44:51.907Z,4.00
2022-10-31T05:45:51.990Z,4.00
2022-10-31T05:46:51.995Z,4.00
2022-10-31T05:47:51.999Z,8.00
2022-10-31T05:48:51.989Z,8.00
2022-10-31T05:49:52.042Z,12.00
2022-10-31T05:50:52.043Z,12.00
2022-10-31T05:51:52.059Z,16.00
2022-10-31T05:52:52.096Z,16.00
2022-10-31T05:53:52.101Z,20.00
2022-10-31T05:54:52.110Z,24.00
2022-10-31T05:55:52.121Z,28.00
2022-10-31T05:56:52.151Z,36.00
2022-10-31T05:57:52.159Z,44.00
2022-10-31T05:58:52.172Z,48.00
2022-10-31T05:59:54.895Z,52.00
2022-10-31T06:00:52.244Z,64.00
2022-10-31T06:01:52.376Z,76.00
2022-10-31T06:02:52.253Z,88.00
2022-10-31T06:03:52.273Z,84.00
2022-10-31T06:04:52.371Z,96.00
2022-10-31T06:05:55.062Z,132.00
2022-10-31T06:06:52.414Z,144.00
2022-10-31T06:07:52.414Z,176.00
2022-10-31T06:08:52.404Z,192.00
2022-10-31T06:09:52.394Z,212.00
2022-10-31T06:10:52.465Z,228.00
2022-10-31T06:11:52.465Z,252.00
2022-10-31T06:12:52.488Z,292.00
2022-10-31T06:13:52.497Z,320.00
2022-10-31T06:14:52.496Z,344.00
2022-10-31T06:15:52.496Z,352.00
2022-10-31T06:16:52.594Z,396.00
2022-10-31T06:17:52.557Z,452.00
2022-10-31T06:18:52.596Z,452.00
2022-10-31T06:19:52.629Z,524.00
2022-10-31T06:20:52.641Z,564.00
2022-10-31T06:21:52.617Z,612.00
2022-10-31T06:22:52.615Z,664.00
2022-10-31T06:23:52.650Z,708.00
2022-10-31T06:24:52.698Z,732.00
2022-10-31T06:25:52.743Z,808.00
2022-10-31T06:26:52.755Z,888.00
2022-10-31T06:27:52.759Z,916.00
2022-10-31T06:28:52.819Z,984.00
2022-10-31T06:29:52.852Z,1104.00
2022-10-31T06:30:52.890Z,1044.00
2022-10-31T06:31:52.931Z,1236.00
2022-10-31T06:32:52.912Z,1320.00
2022-10-31T06:33:52.959Z,1408.00
2022-10-31T06:34:53.020Z,1528.00
2022-10-31T06:35:53.081Z,1500.00
2022-10-31T06:36:53.139Z,1620.00
2022-10-31T06:37:53.173Z,1812.00
2022-10-31T06:38:53.169Z,1852.00
2022-10-31T06:39:53.222Z,1828.00
2022-10-31T06:40:53.272Z,1968.00
2022-10-31T06:41:53.313Z,2060.00
2022-10-31T06:42:53.351Z,1960.00
2022-10-31T06:43:53.332Z,2000.00
2022-10-31T06:44:53.403Z,2232.00
2022-10-31T06:45:53.482Z,2112.00
2022-10-31T06:46:53.463Z,2124.00
2022-10-31T06:48:15.648Z,2352.00
2022-10-31T06:48:53.542Z,2472.00
2022-10-31T06:49:53.593Z,2392.00
2022-10-31T06:50:58.586Z,2456.00
2022-10-31T06:51:53.613Z,2668.00
2022-10-31T06:52:53.913Z,2792.00
2022-10-31T06:53:53.692Z,2924.00
2022-10-31T06:54:53.704Z,2964.00
2022-10-31T06:55:53.725Z,3212.00
2022-10-31T06:56:53.776Z,3628.00
2022-10-31T06:57:55.581Z,3880.00
2022-10-31T06:58:53.845Z,4264.00
2022-10-31T06:59:53.796Z,4328.00
2022-10-31T07:00:53.899Z,4392.00
2022-10-31T07:01:53.935Z,4920.00
2022-10-31T07:02:53.836Z,5320.00
2022-10-31T07:03:53.888Z,5340.00
2022-10-31T07:04:53.949Z,5364.00
2022-10-31T07:05:53.998Z,5516.00
2022-10-31T07:06:54.016Z,5788.00
2022-10-31T07:07:54.048Z,6076.00
2022-10-31T07:08:54.090Z,6316.00
2022-10-31T07:09:54.110Z,6492.00
2022-10-31T07:10:54.140Z,6704.00
2022-10-31T07:11:54.148Z,6664.00
2022-10-31T07:12:54.193Z,6924.00
2022-10-31T07:13:54.209Z,7228.00
2022-10-31T07:14:54.270Z,7244.00
2022-10-31T07:15:54.294Z,6872.00
2022-10-31T07:16:54.303Z,6576.00
2022-10-31T07:17:54.311Z,6756.00
2022-10-31T07:18:54.340Z,7360.00
2022-10-31T07:19:54.410Z,8592.00
2022-10-31T07:20:54.443Z,9212.00
2022-10-31T07:21:54.510Z,9116.00
2022-10-31T07:22:54.555Z,9428.00
2022-10-31T07:23:54.574Z,9480.00
2022-10-31T07:24:54.613Z,9432.00
2022-10-31T07:25:54.693Z,9876.00
2022-10-31T07:26:54.716Z,9876.00
2022-10-31T07:27:54.746Z,9916.00
2022-10-31T07:28:54.784Z,9852.00
2022-10-31T07:29:54.814Z,9072.00
2022-10-31T07:30:54.885Z,9440.00
2022-10-31T07:31:54.934Z,9536.00
2022-10-31T07:32:54.935Z,10140.00
2022-10-31T07:33:54.986Z,10192.00
2022-10-31T07:34:55.018Z,10304.00
2022-10-31T07:35:55.066Z,10828.00
2022-10-31T07:36:55.133Z,10676.00
2022-10-31T07:37:55.177Z,10772.00
2022-10-31T07:38:55.237Z,10148.00
2022-10-31T07:39:55.247Z,9876.00
2022-10-31T07:40:55.239Z,10240.00
2022-10-31T07:41:55.298Z,10252.00
2022-10-31T07:42:55.338Z,10816.00
2022-10-31T07:43:55.392Z,11480.00
2022-10-31T07:44:57.646Z,11556.00
2022-10-31T07:45:55.458Z,12084.00
2022-10-31T07:46:55.520Z,13092.00
2022-10-31T07:47:55.490Z,13648.00
2022-10-31T07:48:55.562Z,13828.00
2022-10-31T07:49:55.552Z,16544.00
2022-10-31T07:50:55.606Z,17216.00
2022-10-31T07:51:55.714Z,18144.00
2022-10-31T07:52:55.682Z,16544.00
2022-10-31T07:53:55.730Z,19424.00
2022-10-31T07:54:55.791Z,27328.00
2022-10-31T07:55:55.882Z,31904.00
2022-10-31T07:56:55.862Z,32672.00
2022-10-31T07:57:55.933Z,32832.00
2022-10-31T07:58:56.001Z,25664.00
2022-10-31T07:59:56.053Z,25280.00
2022-10-31T08:00:56.260Z,25024.00
2022-10-31T08:01:56.092Z,31616.00
2022-10-31T08:02:56.140Z,28896.00
2022-10-31T08:03:56.155Z,27008.00
2022-10-31T08:04:58.680Z,29120.00
2022-10-31T08:05:56.175Z,27840.00
2022-10-31T08:06:56.246Z,25472.00
2022-10-31T08:07:56.292Z,26784.00
2022-10-31T08:08:56.308Z,23552.00
2022-10-31T08:09:56.319Z,20768.00
2022-10-31T08:10:56.329Z,22432.00
2022-10-31T08:11:56.369Z,25984.00
2022-10-31T08:12:56.390Z,28064.00
2022-10-31T08:13:56.423Z,25920.00
2022-10-31T08:14:56.444Z,24288.00
2022-10-31T08:15:56.483Z,27168.00
2022-10-31T08:16:56.491Z,24256.00
2022-10-31T08:17:56.503Z,16032.00
2022-10-31T08:18:56.530Z,20896.00
2022-10-31T08:19:56.552Z,22816.00
2022-10-31T08:20:56.556Z,26720.00
2022-10-31T08:21:56.563Z,22720.00
2022-10-31T08:22:56.556Z,31008.00
2022-10-31T08:23:56.554Z,29504.00
2022-10-31T08:24:56.607Z,31392.00
2022-10-31T08:25:56.575Z,31424.00
2022-10-31T08:26:56.598Z,21920.00
2022-10-31T08:27:56.606Z,23392.00
2022-10-31T08:28:56.617Z,25504.00
2022-10-31T08:29:56.644Z,23584.00
2022-10-31T08:30:56.658Z,18528.00
2022-10-31T08:31:56.706Z,16224.00
2022-10-31T08:32:56.728Z,15936.00
2022-10-31T08:33:56.708Z,15308.00
2022-10-31T08:34:56.719Z,14816.00
2022-10-31T08:35:56.739Z,13736.00
2022-10-31T08:36:56.756Z,13220.00
2022-10-31T08:37:56.906Z,12712.00
2022-10-31T08:39:01.601Z,12420.00
2022-10-31T08:39:56.891Z,12636.00
2022-10-31T08:40:56.907Z,12296.00
2022-10-31T08:41:56.903Z,11864.00
2022-10-31T08:42:56.940Z,11472.00
2022-10-31T08:43:56.940Z,11500.00
2022-10-31T08:44:56.929Z,11548.00
2022-10-31T08:45:56.934Z,11368.00
2022-10-31T08:46:56.996Z,11364.00
2022-10-31T08:47:57.150Z,11420.00
2022-10-31T08:48:57.053Z,12340.00
2022-10-31T08:49:57.075Z,12296.00
2022-10-31T08:50:57.084Z,11488.00
2022-10-31T08:51:57.115Z,11444.00
2022-10-31T08:53:05.258Z,11460.00
2022-10-31T08:53:57.158Z,10696.00
2022-10-31T08:54:57.156Z,9840.00
2022-10-31T08:55:57.147Z,9384.00
2022-10-31T08:56:57.226Z,8924.00
2022-10-31T08:57:57.372Z,9128.00
2022-10-31T08:58:57.337Z,9172.00
2022-10-31T08:59:57.388Z,9012.00
2022-10-31T09:00:57.500Z,8888.00
2022-10-31T09:01:57.664Z,9700.00
2022-10-31T09:02:57.548Z,10128.00
2022-10-31T09:03:58.431Z,10184.00
2022-10-31T09:04:57.589Z,9872.00
2022-10-31T09:05:57.712Z,10016.00
2022-10-31T09:07:57.911Z,9424.00
2022-10-31T09:08:57.757Z,8628.00
2022-10-31T09:09:57.810Z,8780.00
2022-10-31T09:10:57.830Z,8788.00
2022-10-31T09:11:57.809Z,9248.00
2022-10-31T09:12:57.880Z,9556.00
2022-10-31T09:13:57.902Z,10244.00
2022-10-31T09:14:57.903Z,11064.00
2022-10-31T09:15:57.928Z,11964.00
2022-10-31T09:16:57.933Z,13504.00
2022-10-31T09:17:58.154Z,13004.00
2022-10-31T09:18:57.933Z,16004.00
2022-10-31T09:19:57.945Z,17280.00
2022-10-31T09:20:57.976Z,18048.00
2022-10-31T09:21:57.986Z,19776.00
2022-10-31T09:22:58.008Z,18688.00
2022-10-31T09:23:58.007Z,19104.00
2022-10-31T09:24:58.017Z,19360.00
2022-10-31T09:25:58.035Z,19936.00
2022-10-31T09:26:58.038Z,20064.00
2022-10-31T09:27:58.495Z,19904.00
2022-10-31T09:28:58.037Z,18176.00
2022-10-31T09:29:58.048Z,16800.00
2022-10-31T09:30:58.078Z,14780.00
2022-10-31T09:31:58.102Z,13980.00
2022-10-31T09:32:58.090Z,14044.00
2022-10-31T09:33:58.110Z,14092.00
2022-10-31T09:34:58.151Z,13072.00
2022-10-31T09:35:58.120Z,13044.00
2022-10-31T09:36:58.130Z,13372.00
2022-10-31T09:37:58.333Z,13344.00
2022-10-31T09:38:58.239Z,13276.00
2022-10-31T09:39:58.236Z,18272.00
2022-10-31T09:40:58.242Z,15440.00
2022-10-31T09:41:58.252Z,14408.00
2022-10-31T09:42:58.335Z,11320.00
2022-10-31T09:43:58.276Z,12136.00
2022-10-31T09:44:58.296Z,11004.00
2022-10-31T09:45:58.325Z,11060.00
2022-10-31T09:46:58.324Z,10424.00
2022-10-31T09:47:58.590Z,10512.00
2022-10-31T09:48:58.357Z,10208.00
2022-10-31T09:49:58.420Z,9772.00
2022-10-31T09:50:58.457Z,9868.00
2022-10-31T09:51:58.511Z,10124.00
2022-10-31T09:52:58.715Z,10144.00
2022-10-31T09:53:58.488Z,10360.00
2022-10-31T09:54:58.470Z,9956.00
2022-10-31T09:55:58.479Z,10356.00
2022-10-31T09:56:58.479Z,10488.00
2022-10-31T09:57:58.479Z,10620.00
2022-10-31T09:58:58.479Z,10500.00
2022-10-31T09:59:58.540Z,10488.00
2022-10-31T10:00:58.600Z,10476.00
2022-10-31T10:01:58.604Z,11080.00
2022-10-31T10:02:58.931Z,10972.00
2022-10-31T10:03:58.611Z,11012.00
2022-10-31T10:04:58.611Z,10864.00
2022-10-31T10:05:58.644Z,11024.00
2022-10-31T10:06:58.652Z,11164.00
2022-10-31T10:07:58.693Z,10924.00
2022-10-31T10:08:58.753Z,11220.00
2022-10-31T10:09:58.763Z,11180.00
2022-10-31T10:10:58.803Z,11016.00
2022-10-31T10:11:58.847Z,11328.00
2022-10-31T10:13:02.151Z,11296.00
2022-10-31T10:13:58.849Z,11272.00
2022-10-31T10:14:58.885Z,11700.00
2022-10-31T10:15:58.896Z,11592.00
2022-10-31T10:16:58.927Z,11148.00
2022-10-31T10:17:58.947Z,11056.00
2022-10-31T10:18:58.956Z,11300.00
2022-10-31T10:19:58.969Z,11396.00
2022-10-31T10:20:59.038Z,11880.00
2022-10-31T10:21:59.118Z,12056.00
2022-10-31T10:22:59.598Z,11988.00
2022-10-31T10:23:59.221Z,12668.00
2022-10-31T10:24:59.230Z,14184.00
2022-10-31T10:25:59.270Z,14604.00
2022-10-31T10:26:59.260Z,14716.00
2022-10-31T10:27:59.807Z,14164.00
2022-10-31T10:28:59.363Z,14272.00
2022-10-31T10:29:59.392Z,14472.00
2022-10-31T10:30:59.372Z,13844.00
2022-10-31T10:31:59.393Z,14076.00
2022-10-31T10:32:59.475Z,13932.00
2022-10-31T10:33:59.510Z,14504.00
2022-10-31T10:34:59.524Z,14440.00
2022-10-31T10:35:59.633Z,14552.00
2022-10-31T10:36:59.613Z,14092.00
2022-10-31T10:38:00.047Z,14460.00
2022-10-31T10:38:59.722Z,15204.00
2022-10-31T10:39:59.716Z,15108.00
2022-10-31T10:40:59.737Z,12696.00
2022-10-31T10:41:59.717Z,12600.00
2022-10-31T10:42:59.796Z,13512.00
2022-10-31T10:43:59.796Z,13220.00
2022-10-31T10:44:59.828Z,14036.00
2022-10-31T10:45:59.888Z,13860.00
2022-10-31T10:46:59.919Z,12640.00
2022-10-31T10:48:00.299Z,14016.00
2022-10-31T10:48:59.989Z,13728.00
2022-10-31T10:49:59.980Z,13808.00
2022-10-31T10:51:00.000Z,14484.00
2022-10-31T10:53:00.043Z,13108.00
2022-10-31T10:54:00.022Z,11996.00
2022-10-31T10:55:00.032Z,11556.00
2022-10-31T10:56:00.051Z,11364.00
2022-10-31T10:57:00.022Z,12132.00
2022-10-31T10:58:00.520Z,14064.00
2022-10-31T10:59:00.022Z,14600.00
2022-10-31T11:00:00.065Z,14740.00
2022-10-31T11:01:00.194Z,14388.00
2022-10-31T11:02:00.117Z,14152.00
2022-10-31T11:03:00.317Z,13368.00
2022-10-31T11:04:00.088Z,13932.00
2022-10-31T11:05:00.109Z,13600.00
2022-10-31T11:06:00.154Z,12716.00
2022-10-31T11:07:00.155Z,11284.00
2022-10-31T11:08:00.176Z,10528.00
2022-10-31T11:09:00.207Z,10260.00
2022-10-31T11:10:00.287Z,10056.00
2022-10-31T11:11:00.257Z,10044.00
2022-10-31T11:12:00.379Z,10160.00
2022-10-31T11:13:00.660Z,10364.00
2022-10-31T11:14:00.330Z,10324.00
2022-10-31T11:15:00.389Z,10588.00
2022-10-31T11:16:00.423Z,10624.00
2022-10-31T11:17:00.496Z,10800.00
2022-10-31T11:18:00.502Z,11100.00
2022-10-31T11:19:00.542Z,11396.00
2022-10-31T11:20:00.561Z,12624.00
2022-10-31T11:21:00.573Z,13096.00
2022-10-31T11:22:00.585Z,13436.00
2022-10-31T11:23:00.611Z,13996.00
2022-10-31T11:24:00.586Z,13616.00
2022-10-31T11:25:00.601Z,12848.00
2022-10-31T11:26:00.668Z,10712.00
2022-10-31T11:27:00.676Z,10308.00
2022-10-31T11:28:00.732Z,10296.00
2022-10-31T11:29:00.765Z,10508.00
2022-10-31T11:30:01.076Z,10472.00
2022-10-31T11:31:00.851Z,9624.00
2022-10-31T11:32:00.827Z,8804.00
2022-10-31T11:33:01.253Z,8608.00
2022-10-31T11:34:00.918Z,8352.00
2022-10-31T11:35:00.907Z,8012.00
2022-10-31T11:36:00.975Z,7620.00
2022-10-31T11:37:01.030Z,7524.00
2022-10-31T11:38:01.462Z,7536.00
2022-10-31T11:39:01.030Z,7660.00
2022-10-31T11:40:01.037Z,7540.00
2022-10-31T11:41:01.037Z,7804.00
2022-10-31T11:42:04.864Z,7980.00
2022-10-31T11:43:01.042Z,7952.00
2022-10-31T11:44:01.051Z,8292.00
2022-10-31T11:45:01.122Z,8268.00
2022-10-31T11:46:01.172Z,8428.00
2022-10-31T11:47:01.183Z,8664.00
2022-10-31T11:48:01.578Z,8724.00
2022-10-31T11:49:01.195Z,8848.00
2022-10-31T11:50:01.255Z,8908.00
2022-10-31T11:51:01.293Z,8976.00
2022-10-31T11:52:01.350Z,8588.00
2022-10-31T11:53:01.408Z,8832.00
2022-10-31T11:54:03.041Z,8772.00
2022-10-31T11:55:01.436Z,8436.00
2022-10-31T11:56:01.494Z,8440.00
2022-10-31T11:57:01.566Z,8264.00
2022-10-31T11:58:01.780Z,8084.00
2022-10-31T11:59:01.538Z,7828.00
2022-10-31T12:00:01.586Z,7644.00
2022-10-31T12:01:01.581Z,7360.00
2022-10-31T12:02:01.732Z,7144.00
2022-10-31T12:03:02.088Z,7136.00
2022-10-31T12:04:01.640Z,7172.00
2022-10-31T12:05:01.649Z,7024.00
2022-10-31T12:06:01.667Z,7016.00
2022-10-31T12:07:01.697Z,7360.00
2022-10-31T12:08:04.428Z,7300.00
2022-10-31T12:09:01.790Z,7512.00
2022-10-31T12:10:01.855Z,7456.00
2022-10-31T12:11:01.824Z,7428.00
2022-10-31T12:12:01.914Z,7196.00
2022-10-31T12:13:02.233Z,7380.00
2022-10-31T12:14:04.095Z,7344.00
2022-10-31T12:15:01.924Z,7324.00
2022-10-31T12:16:01.983Z,7260.00
2022-10-31T12:17:02.075Z,7096.00
2022-10-31T12:18:02.084Z,7036.00
2022-10-31T12:19:02.134Z,7168.00
2022-10-31T12:20:02.127Z,7264.00
2022-10-31T12:21:02.167Z,7212.00
2022-10-31T12:22:02.236Z,7380.00
2022-10-31T12:23:02.597Z,7236.00
2022-10-31T12:24:02.297Z,7272.00
2022-10-31T12:25:02.392Z,7420.00
2022-10-31T12:26:02.397Z,7708.00
2022-10-31T12:27:02.449Z,7744.00
2022-10-31T12:28:02.449Z,7772.00
2022-10-31T12:29:02.498Z,8216.00
2022-10-31T12:30:02.586Z,8184.00
2022-10-31T12:31:02.550Z,8216.00
2022-10-31T12:32:02.551Z,8256.00
2022-10-31T12:33:02.887Z,8308.00
2022-10-31T12:34:02.651Z,7908.00
2022-10-31T12:35:02.682Z,7908.00
2022-10-31T12:36:02.703Z,7876.00
2022-10-31T12:37:02.732Z,7612.00
2022-10-31T12:38:03.045Z,7560.00